sensor_id;sensor_type;location;lat;lon;timestamp;temperature;humidity
7159;DHT22;63175;52.374;13.132;2022-09-28T00:01:28;10.70;99.90
7159;DHT22;63175;52.374;13.132;2022-09-28T00:03:56;10.70;99.90
7159;DHT22;63175;52.374;13.132;2022-09-28T00:06:25;10.70;99.90
7159;DHT22;63175;52.374;13.132;2022-09-28T00:08:53;10.60;99.90
7159;DHT22;63175;52.374;13.132;2022-09-28T00:11:21;10.60;99.90
7159;DHT22;63175;52.374;13.132;2022-09-28T00:13:50;10.50;99.90
7159;DHT22;63175;52.374;13.132;2022-09-28T00:16:20;10.50;99.90
7159;DHT22;63175;52.374;13.132;2022-09-28T00:18:46;10.50;99.90
7159;DHT22;63175;52.374;13.132;2022-09-28T00:21:17;10.50;99.90
7159;DHT22;63175;52.374;13.132;2022-09-28T00:23:46;10.50;99.90
7159;DHT22;63175;52.374;13.132;2022-09-28T00:26:31;10.50;99.90
7159;DHT22;63175;52.374;13.132;2022-09-28T00:29:00;10.50;99.90
7159;DHT22;63175;52.374;13.132;2022-09-28T00:31:30;10.50;99.90
7159;DHT22;63175;52.374;13.132;2022-09-28T00:33:58;10.50;99.90
7159;DHT22;63175;52.374;13.132;2022-09-28T00:36:25;10.40;99.90
7159;DHT22;63175;52.374;13.132;2022-09-28T00:38:52;10.40;99.90
7159;DHT22;63175;52.374;13.132;2022-09-28T00:41:19;10.40;99.90
7159;DHT22;63175;52.374;13.132;2022-09-28T00:43:46;10.30;99.90
7159;DHT22;63175;52.374;13.132;2022-09-28T00:46:15;10.30;99.90
7159;DHT22;63175;52.374;13.132;2022-09-28T00:48:50;10.30;99.90
7159;DHT22;63175;52.374;13.132;2022-09-28T00:51:18;10.20;99.90
7159;DHT22;63175;52.374;13.132;2022-09-28T00:53:45;10.30;99.90
7159;DHT22;63175;52.374;13.132;2022-09-28T00:56:17;10.30;99.90
7159;DHT22;63175;52.374;13.132;2022-09-28T00:58:46;10.30;99.90
7159;DHT22;63175;52.374;13.132;2022-09-28T01:01:14;10.20;99.90
7159;DHT22;63175;52.374;13.132;2022-09-28T01:03:43;10.30;99.90
7159;DHT22;63175;52.374;13.132;2022-09-28T01:06:17;10.30;99.90
7159;DHT22;63175;52.374;13.132;2022-09-28T01:08:45;10.30;99.90
7159;DHT22;63175;52.374;13.132;2022-09-28T01:11:15;10.30;99.90
7159;DHT22;63175;52.374;13.132;2022-09-28T01:13:43;10.30;99.90
7159;DHT22;63175;52.374;13.132;2022-09-28T01:16:20;10.30;99.90
7159;DHT22;63175;52.374;13.132;2022-09-28T01:18:58;10.30;99.90
7159;DHT22;63175;52.374;13.132;2022-09-28T01:21:27;10.30;99.90
7159;DHT22;63175;52.374;13.132;2022-09-28T01:24:13;10.30;99.90
7159;DHT22;63175;52.374;13.132;2022-09-28T01:27:02;10.20;99.90
7159;DHT22;63175;52.374;13.132;2022-09-28T01:29:36;10.20;99.90
7159;DHT22;63175;52.374;13.132;2022-09-28T01:32:14;10.20;99.90
7159;DHT22;63175;52.374;13.132;2022-09-28T01:34:46;10.20;99.90
7159;DHT22;63175;52.374;13.132;2022-09-28T01:37:20;10.10;99.90
7159;DHT22;63175;52.374;13.132;2022-09-28T01:39:49;10.20;99.90
7159;DHT22;63175;52.374;13.132;2022-09-28T01:42:22;10.20;99.90
7159;DHT22;63175;52.374;13.132;2022-09-28T01:44:50;10.20;99.90
7159;DHT22;63175;52.374;13.132;2022-09-28T01:47:20;10.20;99.90
7159;DHT22;63175;52.374;13.132;2022-09-28T01:49:51;10.20;99.90
7159;DHT22;63175;52.374;13.132;2022-09-28T01:52:23;10.20;99.90
7159;DHT22;63175;52.374;13.132;2022-09-28T01:54:55;10.20;99.90
7159;DHT22;63175;52.374;13.132;2022-09-28T01:57:27;10.10;99.90
7159;DHT22;63175;52.374;13.132;2022-09-28T01:59:58;10.10;99.90
7159;DHT22;63175;52.374;13.132;2022-09-28T02:02:30;10.10;99.90
7159;DHT22;63175;52.374;13.132;2022-09-28T02:05:02;10.10;99.90
7159;DHT22;63175;52.374;13.132;2022-09-28T02:07:33;10.10;99.90
7159;DHT22;63175;52.374;13.132;2022-09-28T02:10:05;10.10;99.90
7159;DHT22;63175;52.374;13.132;2022-09-28T02:12:38;10.10;99.90
7159;DHT22;63175;52.374;13.132;2022-09-28T02:15:11;10.10;99.90
7159;DHT22;63175;52.374;13.132;2022-09-28T02:17:39;10.10;99.90
7159;DHT22;63175;52.374;13.132;2022-09-28T02:20:07;10.10;99.90
7159;DHT22;63175;52.374;13.132;2022-09-28T02:22:40;10.10;99.90
7159;DHT22;63175;52.374;13.132;2022-09-28T02:25:12;10.10;99.90
7159;DHT22;63175;52.374;13.132;2022-09-28T02:27:46;10.10;99.90
7159;DHT22;63175;52.374;13.132;2022-09-28T02:30:17;10.10;99.90
7159;DHT22;63175;52.374;13.132;2022-09-28T02:32:46;10.10;99.90
7159;DHT22;63175;52.374;13.132;2022-09-28T02:35:16;10.10;99.90
7159;DHT22;63175;52.374;13.132;2022-09-28T02:37:43;10.10;99.90
7159;DHT22;63175;52.374;13.132;2022-09-28T02:40:14;10.10;99.90
7159;DHT22;63175;52.374;13.132;2022-09-28T02:42:52;10.10;99.90
7159;DHT22;63175;52.374;13.132;2022-09-28T02:45:32;10.10;99.90
7159;DHT22;63175;52.374;13.132;2022-09-28T02:48:10;10.10;99.90
7159;DHT22;63175;52.374;13.132;2022-09-28T02:50:46;10.10;99.90
7159;DHT22;63175;52.374;13.132;2022-09-28T02:53:44;10.10;99.90
7159;DHT22;63175;52.374;13.132;2022-09-28T02:56:24;10.10;99.90
7159;DHT22;63175;52.374;13.132;2022-09-28T02:59:03;10.10;99.90
7159;DHT22;63175;52.374;13.132;2022-09-28T03:01:36;10.10;99.90
7159;DHT22;63175;52.374;13.132;2022-09-28T03:04:11;10.10;99.90
7159;DHT22;63175;52.374;13.132;2022-09-28T03:06:43;10.10;99.90
7159;DHT22;63175;52.374;13.132;2022-09-28T03:09:17;10.10;99.90
7159;DHT22;63175;52.374;13.132;2022-09-28T03:11:48;10.10;99.90
7159;DHT22;63175;52.374;13.132;2022-09-28T03:14:18;10.10;99.90
7159;DHT22;63175;52.374;13.132;2022-09-28T03:16:45;10.10;99.90
7159;DHT22;63175;52.374;13.132;2022-09-28T03:19:13;10.10;99.90
7159;DHT22;63175;52.374;13.132;2022-09-28T03:21:41;10.00;99.90
7159;DHT22;63175;52.374;13.132;2022-09-28T03:24:08;10.00;99.90
7159;DHT22;63175;52.374;13.132;2022-09-28T03:26:35;10.10;99.90
7159;DHT22;63175;52.374;13.132;2022-09-28T03:29:03;10.00;99.90
7159;DHT22;63175;52.374;13.132;2022-09-28T03:31:31;10.00;99.90
7159;DHT22;63175;52.374;13.132;2022-09-28T03:33:58;10.00;99.90
7159;DHT22;63175;52.374;13.132;2022-09-28T03:36:24;10.00;99.90
7159;DHT22;63175;52.374;13.132;2022-09-28T03:38:52;10.00;99.90
7159;DHT22;63175;52.374;13.132;2022-09-28T03:41:19;10.00;99.90
7159;DHT22;63175;52.374;13.132;2022-09-28T03:43:47;10.00;99.90
7159;DHT22;63175;52.374;13.132;2022-09-28T03:46:13;10.00;99.90
7159;DHT22;63175;52.374;13.132;2022-09-28T03:48:42;10.00;99.90
7159;DHT22;63175;52.374;13.132;2022-09-28T03:51:10;10.00;99.90
7159;DHT22;63175;52.374;13.132;2022-09-28T03:53:37;10.00;99.90
7159;DHT22;63175;52.374;13.132;2022-09-28T03:56:06;10.00;99.90
7159;DHT22;63175;52.374;13.132;2022-09-28T03:58:33;10.00;99.90
7159;DHT22;63175;52.374;13.132;2022-09-28T04:01:01;9.90;99.90
7159;DHT22;63175;52.374;13.132;2022-09-28T04:03:28;9.90;99.90
7159;DHT22;63175;52.374;13.132;2022-09-28T04:05:57;9.90;99.90
7159;DHT22;63175;52.374;13.132;2022-09-28T04:08:24;9.90;99.90
7159;DHT22;63175;52.374;13.132;2022-09-28T04:10:54;9.90;99.90
7159;DHT22;63175;52.374;13.132;2022-09-28T04:13:21;9.90;99.90
7159;DHT22;63175;52.374;13.132;2022-09-28T04:15:52;9.90;99.90
7159;DHT22;63175;52.374;13.132;2022-09-28T04:18:19;9.90;99.90
7159;DHT22;63175;52.374;13.132;2022-09-28T04:20:46;10.00;99.90
7159;DHT22;63175;52.374;13.132;2022-09-28T04:23:15;9.90;99.90
7159;DHT22;63175;52.374;13.132;2022-09-28T04:25:42;9.90;99.90
7159;DHT22;63175;52.374;13.132;2022-09-28T04:28:12;9.90;99.90
7159;DHT22;63175;52.374;13.132;2022-09-28T04:30:56;9.90;99.90
7159;DHT22;63175;52.374;13.132;2022-09-28T04:33:23;9.90;99.90
7159;DHT22;63175;52.374;13.132;2022-09-28T04:35:50;9.90;99.90
7159;DHT22;63175;52.374;13.132;2022-09-28T04:38:18;9.90;99.90
7159;DHT22;63175;52.374;13.132;2022-09-28T04:40:48;9.90;99.90
7159;DHT22;63175;52.374;13.132;2022-09-28T04:43:15;9.90;99.90
7159;DHT22;63175;52.374;13.132;2022-09-28T04:45:42;9.80;99.90
7159;DHT22;63175;52.374;13.132;2022-09-28T04:48:08;9.80;99.90
7159;DHT22;63175;52.374;13.132;2022-09-28T04:50:35;9.80;99.90
7159;DHT22;63175;52.374;13.132;2022-09-28T04:53:02;9.80;99.90
7159;DHT22;63175;52.374;13.132;2022-09-28T04:55:31;9.80;99.90
7159;DHT22;63175;52.374;13.132;2022-09-28T04:57:58;9.90;99.90
7159;DHT22;63175;52.374;13.132;2022-09-28T05:00:27;9.90;99.90
7159;DHT22;63175;52.374;13.132;2022-09-28T05:02:54;9.90;99.90
7159;DHT22;63175;52.374;13.132;2022-09-28T05:05:21;9.90;99.90
7159;DHT22;63175;52.374;13.132;2022-09-28T05:07:48;9.80;99.90
7159;DHT22;63175;52.374;13.132;2022-09-28T05:10:15;9.80;99.90
7159;DHT22;63175;52.374;13.132;2022-09-28T05:12:44;9.80;99.90
7159;DHT22;63175;52.374;13.132;2022-09-28T05:15:11;9.80;99.90
7159;DHT22;63175;52.374;13.132;2022-09-28T05:17:38;9.80;99.90
7159;DHT22;63175;52.374;13.132;2022-09-28T05:20:06;9.80;99.90
7159;DHT22;63175;52.374;13.132;2022-09-28T05:22:33;9.80;99.90
7159;DHT22;63175;52.374;13.132;2022-09-28T05:25:00;9.80;99.90
7159;DHT22;63175;52.374;13.132;2022-09-28T05:27:27;9.80;99.90
7159;DHT22;63175;52.374;13.132;2022-09-28T05:29:55;9.80;99.90
7159;DHT22;63175;52.374;13.132;2022-09-28T05:32:22;9.80;99.90
7159;DHT22;63175;52.374;13.132;2022-09-28T05:34:49;9.80;99.90
7159;DHT22;63175;52.374;13.132;2022-09-28T05:37:16;9.80;99.90
7159;DHT22;63175;52.374;13.132;2022-09-28T05:39:42;9.80;99.90
7159;DHT22;63175;52.374;13.132;2022-09-28T05:42:10;9.80;99.90
7159;DHT22;63175;52.374;13.132;2022-09-28T05:44:37;9.80;99.90
7159;DHT22;63175;52.374;13.132;2022-09-28T05:47:05;9.80;99.90
7159;DHT22;63175;52.374;13.132;2022-09-28T05:49:32;9.80;99.90
7159;DHT22;63175;52.374;13.132;2022-09-28T05:51:59;9.80;99.90
7159;DHT22;63175;52.374;13.132;2022-09-28T05:54:26;9.80;99.90
7159;DHT22;63175;52.374;13.132;2022-09-28T05:56:52;9.80;99.90
7159;DHT22;63175;52.374;13.132;2022-09-28T05:59:19;9.80;99.90
7159;DHT22;63175;52.374;13.132;2022-09-28T06:01:46;9.80;99.90
7159;DHT22;63175;52.374;13.132;2022-09-28T06:04:14;9.90;99.90
7159;DHT22;63175;52.374;13.132;2022-09-28T06:06:41;9.90;99.90
7159;DHT22;63175;52.374;13.132;2022-09-28T06:09:08;10.00;99.90
7159;DHT22;63175;52.374;13.132;2022-09-28T06:11:35;10.00;99.90
7159;DHT22;63175;52.374;13.132;2022-09-28T06:14:02;10.10;99.90
7159;DHT22;63175;52.374;13.132;2022-09-28T06:16:29;10.20;99.90
7159;DHT22;63175;52.374;13.132;2022-09-28T06:18:56;10.30;99.90
7159;DHT22;63175;52.374;13.132;2022-09-28T06:21:24;10.30;99.90
7159;DHT22;63175;52.374;13.132;2022-09-28T06:23:51;10.40;99.90
7159;DHT22;63175;52.374;13.132;2022-09-28T06:26:18;10.50;99.90
7159;DHT22;63175;52.374;13.132;2022-09-28T06:28:45;10.50;99.90
7159;DHT22;63175;52.374;13.132;2022-09-28T06:31:12;10.60;99.90
7159;DHT22;63175;52.374;13.132;2022-09-28T06:33:40;10.70;99.90
7159;DHT22;63175;52.374;13.132;2022-09-28T06:36:07;10.70;99.90
7159;DHT22;63175;52.374;13.132;2022-09-28T06:38:35;10.70;99.90
7159;DHT22;63175;52.374;13.132;2022-09-28T06:41:03;10.80;99.90
7159;DHT22;63175;52.374;13.132;2022-09-28T06:43:30;10.80;99.90
7159;DHT22;63175;52.374;13.132;2022-09-28T06:45:58;10.80;99.90
7159;DHT22;63175;52.374;13.132;2022-09-28T06:48:25;10.90;99.90
7159;DHT22;63175;52.374;13.132;2022-09-28T06:50:52;10.90;99.90
7159;DHT22;63175;52.374;13.132;2022-09-28T06:53:19;10.90;99.90
7159;DHT22;63175;52.374;13.132;2022-09-28T06:55:49;11.00;99.90
7159;DHT22;63175;52.374;13.132;2022-09-28T06:58:18;11.10;99.90
7159;DHT22;63175;52.374;13.132;2022-09-28T07:00:46;11.10;99.90
7159;DHT22;63175;52.374;13.132;2022-09-28T07:03:15;11.20;99.90
7159;DHT22;63175;52.374;13.132;2022-09-28T07:05:44;11.30;99.90
7159;DHT22;63175;52.374;13.132;2022-09-28T07:08:11;11.40;99.90
7159;DHT22;63175;52.374;13.132;2022-09-28T07:10:40;11.50;99.90
7159;DHT22;63175;52.374;13.132;2022-09-28T07:13:09;11.60;99.90
7159;DHT22;63175;52.374;13.132;2022-09-28T07:15:38;11.70;99.90
7159;DHT22;63175;52.374;13.132;2022-09-28T07:18:06;11.80;99.90
7159;DHT22;63175;52.374;13.132;2022-09-28T07:20:34;11.90;99.90
7159;DHT22;63175;52.374;13.132;2022-09-28T07:23:03;11.90;99.90
7159;DHT22;63175;52.374;13.132;2022-09-28T07:25:31;11.90;99.90
7159;DHT22;63175;52.374;13.132;2022-09-28T07:27:59;11.90;99.90
7159;DHT22;63175;52.374;13.132;2022-09-28T07:30:29;11.90;99.90
7159;DHT22;63175;52.374;13.132;2022-09-28T07:32:58;11.90;99.90
7159;DHT22;63175;52.374;13.132;2022-09-28T07:35:25;11.90;99.90
7159;DHT22;63175;52.374;13.132;2022-09-28T07:37:56;11.90;99.90
7159;DHT22;63175;52.374;13.132;2022-09-28T07:40:25;11.80;99.90
7159;DHT22;63175;52.374;13.132;2022-09-28T07:43:09;11.80;99.90
7159;DHT22;63175;52.374;13.132;2022-09-28T07:45:39;11.80;99.90
7159;DHT22;63175;52.374;13.132;2022-09-28T07:48:06;11.70;99.90
7159;DHT22;63175;52.374;13.132;2022-09-28T07:50:32;11.70;99.90
7159;DHT22;63175;52.374;13.132;2022-09-28T07:52:59;11.60;99.90
7159;DHT22;63175;52.374;13.132;2022-09-28T07:55:26;11.60;99.90
7159;DHT22;63175;52.374;13.132;2022-09-28T07:57:54;11.50;99.90
7159;DHT22;63175;52.374;13.132;2022-09-28T08:00:20;11.50;99.90
7159;DHT22;63175;52.374;13.132;2022-09-28T08:02:49;11.60;99.90
7159;DHT22;63175;52.374;13.132;2022-09-28T08:05:16;11.70;99.90
7159;DHT22;63175;52.374;13.132;2022-09-28T08:07:43;11.80;99.90
7159;DHT22;63175;52.374;13.132;2022-09-28T08:10:10;11.90;99.90
7159;DHT22;63175;52.374;13.132;2022-09-28T08:12:37;11.90;99.90
7159;DHT22;63175;52.374;13.132;2022-09-28T08:15:06;11.90;99.90
7159;DHT22;63175;52.374;13.132;2022-09-28T08:17:34;12.00;99.90
7159;DHT22;63175;52.374;13.132;2022-09-28T08:20:03;12.00;99.90
7159;DHT22;63175;52.374;13.132;2022-09-28T08:22:48;12.00;99.90
7159;DHT22;63175;52.374;13.132;2022-09-28T08:25:15;12.00;99.90
7159;DHT22;63175;52.374;13.132;2022-09-28T08:27:42;12.00;99.90
7159;DHT22;63175;52.374;13.132;2022-09-28T08:30:09;11.90;99.90
7159;DHT22;63175;52.374;13.132;2022-09-28T08:32:36;11.90;99.90
7159;DHT22;63175;52.374;13.132;2022-09-28T08:35:05;11.90;99.90
7159;DHT22;63175;52.374;13.132;2022-09-28T08:37:32;12.00;99.90
7159;DHT22;63175;52.374;13.132;2022-09-28T08:39:59;12.00;99.90
7159;DHT22;63175;52.374;13.132;2022-09-28T08:42:32;12.10;99.90
7159;DHT22;63175;52.374;13.132;2022-09-28T08:45:06;12.20;99.90
7159;DHT22;63175;52.374;13.132;2022-09-28T08:47:44;12.50;99.90
7159;DHT22;63175;52.374;13.132;2022-09-28T08:50:33;12.70;99.90
7159;DHT22;63175;52.374;13.132;2022-09-28T08:53:08;13.10;99.90
7159;DHT22;63175;52.374;13.132;2022-09-28T08:55:38;13.30;99.90
7159;DHT22;63175;52.374;13.132;2022-09-28T08:58:10;13.50;99.90
7159;DHT22;63175;52.374;13.132;2022-09-28T09:00:44;13.80;99.90
7159;DHT22;63175;52.374;13.132;2022-09-28T09:03:13;14.10;99.90
7159;DHT22;63175;52.374;13.132;2022-09-28T09:05:50;14.20;99.70
7159;DHT22;63175;52.374;13.132;2022-09-28T09:08:29;14.30;98.40
7159;DHT22;63175;52.374;13.132;2022-09-28T09:11:03;14.30;98.30
7159;DHT22;63175;52.374;13.132;2022-09-28T09:13:47;14.30;98.00
7159;DHT22;63175;52.374;13.132;2022-09-28T09:16:27;14.20;97.90
7159;DHT22;63175;52.374;13.132;2022-09-28T09:18:58;14.10;98.10
7159;DHT22;63175;52.374;13.132;2022-09-28T09:21:38;14.00;98.40
7159;DHT22;63175;52.374;13.132;2022-09-28T09:24:22;13.70;97.90
7159;DHT22;63175;52.374;13.132;2022-09-28T09:26:58;13.60;98.10
7159;DHT22;63175;52.374;13.132;2022-09-28T09:29:51;13.50;98.30
7159;DHT22;63175;52.374;13.132;2022-09-28T09:32:36;13.40;98.70
7159;DHT22;63175;52.374;13.132;2022-09-28T09:35:18;13.30;99.10
7159;DHT22;63175;52.374;13.132;2022-09-28T09:38:00;13.20;99.10
7159;DHT22;63175;52.374;13.132;2022-09-28T09:40:45;13.10;99.20
7159;DHT22;63175;52.374;13.132;2022-09-28T09:43:32;13.10;99.60
7159;DHT22;63175;52.374;13.132;2022-09-28T09:46:11;13.00;99.90
7159;DHT22;63175;52.374;13.132;2022-09-28T09:48:48;13.00;99.90
7159;DHT22;63175;52.374;13.132;2022-09-28T09:51:21;12.90;99.90
7159;DHT22;63175;52.374;13.132;2022-09-28T09:53:54;12.90;99.90
7159;DHT22;63175;52.374;13.132;2022-09-28T09:56:31;12.80;99.90
7159;DHT22;63175;52.374;13.132;2022-09-28T09:59:04;12.70;99.90
7159;DHT22;63175;52.374;13.132;2022-09-28T10:01:34;12.70;99.90
7159;DHT22;63175;52.374;13.132;2022-09-28T10:04:06;12.60;99.90
7159;DHT22;63175;52.374;13.132;2022-09-28T10:06:38;12.60;99.90
7159;DHT22;63175;52.374;13.132;2022-09-28T10:09:13;12.50;99.90
7159;DHT22;63175;52.374;13.132;2022-09-28T10:11:44;12.40;99.90
7159;DHT22;63175;52.374;13.132;2022-09-28T10:14:15;12.40;99.90
7159;DHT22;63175;52.374;13.132;2022-09-28T10:16:45;12.30;99.90
7159;DHT22;63175;52.374;13.132;2022-09-28T10:19:13;12.20;99.90
7159;DHT22;63175;52.374;13.132;2022-09-28T10:21:42;12.20;99.90
7159;DHT22;63175;52.374;13.132;2022-09-28T10:24:21;12.10;99.90
7159;DHT22;63175;52.374;13.132;2022-09-28T10:26:53;12.10;99.90
7159;DHT22;63175;52.374;13.132;2022-09-28T10:29:23;12.00;99.90
7159;DHT22;63175;52.374;13.132;2022-09-28T10:31:51;12.00;99.90
7159;DHT22;63175;52.374;13.132;2022-09-28T10:34:25;11.90;99.90
7159;DHT22;63175;52.374;13.132;2022-09-28T10:36:54;11.80;99.90
7159;DHT22;63175;52.374;13.132;2022-09-28T10:39:33;11.80;99.90
7159;DHT22;63175;52.374;13.132;2022-09-28T10:42:04;11.80;99.90
7159;DHT22;63175;52.374;13.132;2022-09-28T10:44:33;11.70;99.90
7159;DHT22;63175;52.374;13.132;2022-09-28T10:47:02;11.70;99.90
7159;DHT22;63175;52.374;13.132;2022-09-28T10:49:37;11.70;99.90
7159;DHT22;63175;52.374;13.132;2022-09-28T10:52:09;11.60;99.90
7159;DHT22;63175;52.374;13.132;2022-09-28T10:54:55;11.60;99.90
7159;DHT22;63175;52.374;13.132;2022-09-28T10:57:27;11.60;99.90
7159;DHT22;63175;52.374;13.132;2022-09-28T10:59:54;11.60;99.90
7159;DHT22;63175;52.374;13.132;2022-09-28T11:02:23;11.60;99.90
7159;DHT22;63175;52.374;13.132;2022-09-28T11:04:54;11.60;99.90
7159;DHT22;63175;52.374;13.132;2022-09-28T11:07:23;11.60;99.90
7159;DHT22;63175;52.374;13.132;2022-09-28T11:09:52;11.60;99.90
7159;DHT22;63175;52.374;13.132;2022-09-28T11:12:24;11.50;99.90
7159;DHT22;63175;52.374;13.132;2022-09-28T11:14:57;11.60;99.90
7159;DHT22;63175;52.374;13.132;2022-09-28T11:17:28;11.50;99.90
7159;DHT22;63175;52.374;13.132;2022-09-28T11:19:56;11.50;99.90
7159;DHT22;63175;52.374;13.132;2022-09-28T11:22:26;11.50;99.90
7159;DHT22;63175;52.374;13.132;2022-09-28T11:25:13;11.50;99.90
7159;DHT22;63175;52.374;13.132;2022-09-28T11:27:54;11.50;99.90
7159;DHT22;63175;52.374;13.132;2022-09-28T11:30:23;11.50;99.90
7159;DHT22;63175;52.374;13.132;2022-09-28T11:32:52;11.60;99.90
7159;DHT22;63175;52.374;13.132;2022-09-28T11:35:21;11.60;99.90
7159;DHT22;63175;52.374;13.132;2022-09-28T11:38:07;11.60;99.90
7159;DHT22;63175;52.374;13.132;2022-09-28T11:40:46;11.60;99.90
7159;DHT22;63175;52.374;13.132;2022-09-28T11:43:30;11.60;99.90
7159;DHT22;63175;52.374;13.132;2022-09-28T11:46:07;11.60;99.90
7159;DHT22;63175;52.374;13.132;2022-09-28T11:48:40;11.60;99.90
7159;DHT22;63175;52.374;13.132;2022-09-28T11:51:15;11.60;99.90
7159;DHT22;63175;52.374;13.132;2022-09-28T11:53:48;11.60;99.90
7159;DHT22;63175;52.374;13.132;2022-09-28T11:56:26;11.70;99.90
7159;DHT22;63175;52.374;13.132;2022-09-28T11:58:58;11.70;99.90
7159;DHT22;63175;52.374;13.132;2022-09-28T12:01:30;11.80;99.90
7159;DHT22;63175;52.374;13.132;2022-09-28T12:04:04;11.90;99.90
7159;DHT22;63175;52.374;13.132;2022-09-28T12:06:38;12.00;99.90
7159;DHT22;63175;52.374;13.132;2022-09-28T12:09:15;12.00;99.90
7159;DHT22;63175;52.374;13.132;2022-09-28T12:11:47;12.10;99.90
7159;DHT22;63175;52.374;13.132;2022-09-28T12:14:20;12.10;99.90
7159;DHT22;63175;52.374;13.132;2022-09-28T12:16:52;12.20;99.90
7159;DHT22;63175;52.374;13.132;2022-09-28T12:19:26;12.20;99.90
7159;DHT22;63175;52.374;13.132;2022-09-28T12:21:56;12.20;99.90
7159;DHT22;63175;52.374;13.132;2022-09-28T12:24:28;12.30;99.90
7159;DHT22;63175;52.374;13.132;2022-09-28T12:26:59;12.40;99.90
7159;DHT22;63175;52.374;13.132;2022-09-28T12:29:32;12.40;99.90
7159;DHT22;63175;52.374;13.132;2022-09-28T12:32:10;12.50;99.90
7159;DHT22;63175;52.374;13.132;2022-09-28T12:34:40;12.60;99.90
7159;DHT22;63175;52.374;13.132;2022-09-28T12:37:23;12.70;99.90
7159;DHT22;63175;52.374;13.132;2022-09-28T12:42:58;12.80;99.90
7159;DHT22;63175;52.374;13.132;2022-09-28T12:45:42;12.90;99.90
7159;DHT22;63175;52.374;13.132;2022-09-28T12:48:41;13.00;99.90
7159;DHT22;63175;52.374;13.132;2022-09-28T12:51:23;13.00;99.90
7159;DHT22;63175;52.374;13.132;2022-09-28T12:54:00;13.10;99.90
7159;DHT22;63175;52.374;13.132;2022-09-28T12:56:37;13.10;99.90
7159;DHT22;63175;52.374;13.132;2022-09-28T12:59:15;13.20;99.90
7159;DHT22;63175;52.374;13.132;2022-09-28T13:02:10;13.20;99.90
7159;DHT22;63175;52.374;13.132;2022-09-28T13:04:57;13.20;99.90
7159;DHT22;63175;52.374;13.132;2022-09-28T13:07:34;13.20;99.90
7159;DHT22;63175;52.374;13.132;2022-09-28T13:10:12;13.20;99.90
7159;DHT22;63175;52.374;13.132;2022-09-28T13:12:51;13.20;99.90
7159;DHT22;63175;52.374;13.132;2022-09-28T13:15:41;13.20;99.90
7159;DHT22;63175;52.374;13.132;2022-09-28T13:18:19;13.30;99.90
7159;DHT22;63175;52.374;13.132;2022-09-28T13:20:56;13.30;99.90
7159;DHT22;63175;52.374;13.132;2022-09-28T13:23:28;13.30;99.90
7159;DHT22;63175;52.374;13.132;2022-09-28T13:26:00;13.30;99.90
7159;DHT22;63175;52.374;13.132;2022-09-28T13:28:30;13.30;99.90
7159;DHT22;63175;52.374;13.132;2022-09-28T13:30:58;13.20;99.90
7159;DHT22;63175;52.374;13.132;2022-09-28T13:33:31;13.20;99.90
7159;DHT22;63175;52.374;13.132;2022-09-28T13:36:01;13.20;99.90
7159;DHT22;63175;52.374;13.132;2022-09-28T13:38:50;13.20;99.90
7159;DHT22;63175;52.374;13.132;2022-09-28T13:41:22;13.20;99.90
7159;DHT22;63175;52.374;13.132;2022-09-28T13:44:22;13.20;99.90
7159;DHT22;63175;52.374;13.132;2022-09-28T13:47:07;13.20;99.90
7159;DHT22;63175;52.374;13.132;2022-09-28T13:49:45;13.20;99.90
7159;DHT22;63175;52.374;13.132;2022-09-28T13:52:29;13.20;99.90
7159;DHT22;63175;52.374;13.132;2022-09-28T13:55:22;13.20;99.90
7159;DHT22;63175;52.374;13.132;2022-09-28T13:57:54;13.20;99.90
7159;DHT22;63175;52.374;13.132;2022-09-28T14:00:27;13.10;99.90
7159;DHT22;63175;52.374;13.132;2022-09-28T14:02:58;13.10;99.90
7159;DHT22;63175;52.374;13.132;2022-09-28T14:05:58;13.10;99.90
7159;DHT22;63175;52.374;13.132;2022-09-28T14:08:37;13.10;99.90
7159;DHT22;63175;52.374;13.132;2022-09-28T14:11:39;13.20;99.90
7159;DHT22;63175;52.374;13.132;2022-09-28T14:20:15;13.10;99.50
7159;DHT22;63175;52.374;13.132;2022-09-28T14:23:05;13.10;99.60
7159;DHT22;63175;52.374;13.132;2022-09-28T14:25:42;13.20;99.90
7159;DHT22;63175;52.374;13.132;2022-09-28T14:28:30;13.20;99.90
7159;DHT22;63175;52.374;13.132;2022-09-28T14:31:06;13.20;99.90
7159;DHT22;63175;52.374;13.132;2022-09-28T14:33:35;13.20;99.90
7159;DHT22;63175;52.374;13.132;2022-09-28T14:36:05;13.20;99.90
7159;DHT22;63175;52.374;13.132;2022-09-28T14:38:36;13.20;99.90
7159;DHT22;63175;52.374;13.132;2022-09-28T14:41:41;13.20;99.90
7159;DHT22;63175;52.374;13.132;2022-09-28T14:44:10;13.20;99.90
7159;DHT22;63175;52.374;13.132;2022-09-28T14:46:38;13.20;99.90
7159;DHT22;63175;52.374;13.132;2022-09-28T14:49:43;13.20;99.90
7159;DHT22;63175;52.374;13.132;2022-09-28T14:52:12;13.20;99.90
7159;DHT22;63175;52.374;13.132;2022-09-28T14:54:50;13.20;99.90
7159;DHT22;63175;52.374;13.132;2022-09-28T14:57:21;13.10;99.90
7159;DHT22;63175;52.374;13.132;2022-09-28T14:59:49;13.10;99.90
7159;DHT22;63175;52.374;13.132;2022-09-28T15:02:20;13.10;99.90
7159;DHT22;63175;52.374;13.132;2022-09-28T15:04:51;13.10;99.90
7159;DHT22;63175;52.374;13.132;2022-09-28T15:07:20;13.10;99.90
7159;DHT22;63175;52.374;13.132;2022-09-28T15:09:50;13.10;99.90
7159;DHT22;63175;52.374;13.132;2022-09-28T15:12:19;13.10;99.90
7159;DHT22;63175;52.374;13.132;2022-09-28T15:14:53;13.10;99.90
7159;DHT22;63175;52.374;13.132;2022-09-28T15:17:23;13.10;99.90
7159;DHT22;63175;52.374;13.132;2022-09-28T15:20:20;13.00;99.90
7159;DHT22;63175;52.374;13.132;2022-09-28T15:22:49;13.00;99.90
7159;DHT22;63175;52.374;13.132;2022-09-28T15:25:20;12.90;99.90
7159;DHT22;63175;52.374;13.132;2022-09-28T15:27:51;12.90;99.90
7159;DHT22;63175;52.374;13.132;2022-09-28T15:30:24;12.90;99.90
7159;DHT22;63175;52.374;13.132;2022-09-28T15:32:51;12.80;99.90
7159;DHT22;63175;52.374;13.132;2022-09-28T15:35:23;12.80;99.90
7159;DHT22;63175;52.374;13.132;2022-09-28T15:37:50;12.80;99.90
7159;DHT22;63175;52.374;13.132;2022-09-28T15:40:25;12.70;99.90
7159;DHT22;63175;52.374;13.132;2022-09-28T15:42:54;12.70;99.90
7159;DHT22;63175;52.374;13.132;2022-09-28T15:45:26;12.60;99.90
7159;DHT22;63175;52.374;13.132;2022-09-28T15:48:16;12.60;99.90
7159;DHT22;63175;52.374;13.132;2022-09-28T15:50:59;12.60;99.90
7159;DHT22;63175;52.374;13.132;2022-09-28T15:53:26;12.50;99.90
7159;DHT22;63175;52.374;13.132;2022-09-28T15:56:01;12.50;99.90
7159;DHT22;63175;52.374;13.132;2022-09-28T15:58:34;12.40;99.90
7159;DHT22;63175;52.374;13.132;2022-09-28T16:01:30;12.40;99.90
7159;DHT22;63175;52.374;13.132;2022-09-28T16:04:35;12.30;99.90
7159;DHT22;63175;52.374;13.132;2022-09-28T16:07:35;12.20;99.90
7159;DHT22;63175;52.374;13.132;2022-09-28T16:10:28;12.20;99.90
7159;DHT22;63175;52.374;13.132;2022-09-28T16:13:08;12.20;99.90
7159;DHT22;63175;52.374;13.132;2022-09-28T16:15:37;12.20;99.90